SIPK1: Pottawatomie Creek nr Scipio 1SE

                                SHEF ID:       SIPK1     POTTAWATOMIE C NR SCIPIO, KS
STATION TYPE:

PRECIP STAGE RIV-FLOW BAT-LOAD
in ft cfs volt
Ccp-Rev Ccp-Rev Ccp-Rev Ccp-Rev
(America/Chicago)
05/01 00:00 ---- 4.95 339 12.73
05/01 01:00 ---- 4.92 333 12.65
05/01 02:00 ---- 4.90 329 12.65
05/01 03:00 ---- 4.87 324 12.65
05/01 04:00 ---- 4.85 320 12.57
05/01 05:00 ---- 4.82 315 12.57
05/01 06:00 ---- 4.80 311 12.57
05/01 07:00 ---- 4.78 307 12.49
05/01 08:00 ---- 4.76 304 12.49
05/01 09:00 ---- 4.74 300 12.57
05/01 10:00 ---- 4.72 296 12.57
05/01 11:00 ---- 4.70 293 14.00
05/01 12:00 ---- 4.69 291 13.92
05/01 13:00 ---- 4.67 287 13.92
05/01 14:00 ---- 4.65 282 13.92
05/01 15:00 ---- 4.64 279 13.92
05/01 16:00 ---- 4.61 271 13.76
05/01 17:00 ---- 4.60 268 13.60
05/01 18:00 ---- 4.57 259 13.68
05/01 19:00 ---- 4.55 253 13.53
05/01 20:00 ---- 4.53 248 12.89
05/01 21:00 ---- 4.52 245 12.81
05/01 22:00 ---- 4.50 240 12.81
05/01 23:00 ---- 4.48 234 12.73
Data processed at Sat 02May2026 04:48 GMT

NOTICE: If you are parsing this page

Please convert to using our Data API. Starting early 2026 we will be migrating to: https://water.usace.army.mil with modern pages rendered in JavaScript. When this migration completes you will no longer be able to scrape this page! CWMSDataAPI (CDA)

Timeseries IDs (TSIDs)

TSIDs used from left to right in the data table
SCIP.Precip-Inc.Total.1Hour.1Hour.Ccp-Rev
SCIP.Stage.Inst.1Hour.0.Ccp-Rev
SCIP.Flow.Inst.1Hour.0.Ccp-Rev
SCIP.Volt-Battery Load.Inst.1Hour.0.Ccp-Rev

                            

All information presented herein is the property of the government of the United States of America and may be revised or deleted at any time without prior notice. Dissemination of this information without the expressed written consent of the Public Affairs Office, Tulsa District U.S. Army Corps of Engineers is strictly prohibited. These data are gathered electronically and, as presented, have NOT undergone any form of quality control. These data are NOT guaranteed to be valid or correct.